sensor_id;sensor_type;location;lat;lon;timestamp;P1;durP1;ratioP1;P2;durP2;ratioP2
42978;SDS011;28616;44.746;19.678;2022-08-24T00:02:21;23.80;;;16.42;;
42978;SDS011;28616;44.746;19.678;2022-08-24T00:04:48;29.25;;;18.17;;
42978;SDS011;28616;44.746;19.678;2022-08-24T00:07:14;23.13;;;15.95;;
42978;SDS011;28616;44.746;19.678;2022-08-24T00:09:41;23.70;;;15.32;;
42978;SDS011;28616;44.746;19.678;2022-08-24T00:12:08;22.25;;;15.00;;
42978;SDS011;28616;44.746;19.678;2022-08-24T00:14:34;23.05;;;15.30;;
42978;SDS011;28616;44.746;19.678;2022-08-24T00:17:00;31.10;;;16.63;;
42978;SDS011;28616;44.746;19.678;2022-08-24T00:19:27;31.23;;;15.82;;
42978;SDS011;28616;44.746;19.678;2022-08-24T00:21:53;26.77;;;16.33;;
42978;SDS011;28616;44.746;19.678;2022-08-24T00:24:19;27.83;;;16.75;;
42978;SDS011;28616;44.746;19.678;2022-08-24T00:26:51;24.40;;;16.58;;
42978;SDS011;28616;44.746;19.678;2022-08-24T00:29:18;26.70;;;15.75;;
42978;SDS011;28616;44.746;19.678;2022-08-24T00:31:46;24.65;;;15.18;;
42978;SDS011;28616;44.746;19.678;2022-08-24T00:34:12;25.88;;;14.85;;
42978;SDS011;28616;44.746;19.678;2022-08-24T00:36:39;21.90;;;14.90;;
42978;SDS011;28616;44.746;19.678;2022-08-24T00:39:06;22.13;;;14.82;;
42978;SDS011;28616;44.746;19.678;2022-08-24T00:41:33;21.95;;;14.48;;
42978;SDS011;28616;44.746;19.678;2022-08-24T00:44:04;23.17;;;14.95;;
42978;SDS011;28616;44.746;19.678;2022-08-24T00:46:44;24.75;;;14.27;;
42978;SDS011;28616;44.746;19.678;2022-08-24T00:49:26;23.00;;;14.75;;
42978;SDS011;28616;44.746;19.678;2022-08-24T00:55:14;20.75;;;13.88;;
42978;SDS011;28616;44.746;19.678;2022-08-24T00:57:46;18.98;;;13.80;;
42978;SDS011;28616;44.746;19.678;2022-08-24T01:00:17;21.55;;;14.65;;
42978;SDS011;28616;44.746;19.678;2022-08-24T01:02:47;24.10;;;14.35;;
42978;SDS011;28616;44.746;19.678;2022-08-24T01:05:15;21.63;;;14.25;;
42978;SDS011;28616;44.746;19.678;2022-08-24T01:07:41;25.90;;;15.65;;
42978;SDS011;28616;44.746;19.678;2022-08-24T01:10:09;24.13;;;15.35;;
42978;SDS011;28616;44.746;19.678;2022-08-24T01:12:38;26.48;;;16.25;;
42978;SDS011;28616;44.746;19.678;2022-08-24T01:15:09;24.90;;;17.10;;
42978;SDS011;28616;44.746;19.678;2022-08-24T01:17:36;27.52;;;17.45;;
42978;SDS011;28616;44.746;19.678;2022-08-24T01:20:20;29.35;;;18.33;;
42978;SDS011;28616;44.746;19.678;2022-08-24T01:25:35;29.17;;;18.85;;
42978;SDS011;28616;44.746;19.678;2022-08-24T01:28:04;30.23;;;18.50;;
42978;SDS011;28616;44.746;19.678;2022-08-24T01:30:33;27.95;;;18.08;;
42978;SDS011;28616;44.746;19.678;2022-08-24T01:33:00;30.05;;;18.92;;
42978;SDS011;28616;44.746;19.678;2022-08-24T01:35:28;29.80;;;19.23;;
42978;SDS011;28616;44.746;19.678;2022-08-24T01:37:55;30.73;;;18.13;;
42978;SDS011;28616;44.746;19.678;2022-08-24T01:40:25;25.65;;;18.15;;
42978;SDS011;28616;44.746;19.678;2022-08-24T01:43:01;29.40;;;19.00;;
42978;SDS011;28616;44.746;19.678;2022-08-24T01:45:29;26.95;;;16.17;;
42978;SDS011;28616;44.746;19.678;2022-08-24T01:47:55;29.90;;;16.30;;
42978;SDS011;28616;44.746;19.678;2022-08-24T01:50:22;25.70;;;16.67;;
42978;SDS011;28616;44.746;19.678;2022-08-24T01:52:48;30.23;;;16.40;;
42978;SDS011;28616;44.746;19.678;2022-08-24T01:55:16;24.90;;;15.45;;
42978;SDS011;28616;44.746;19.678;2022-08-24T01:57:43;26.42;;;15.15;;
42978;SDS011;28616;44.746;19.678;2022-08-24T02:00:11;22.33;;;14.98;;
42978;SDS011;28616;44.746;19.678;2022-08-24T02:02:39;22.90;;;14.43;;
42978;SDS011;28616;44.746;19.678;2022-08-24T02:05:06;22.42;;;14.88;;
42978;SDS011;28616;44.746;19.678;2022-08-24T02:07:33;24.25;;;15.18;;
42978;SDS011;28616;44.746;19.678;2022-08-24T02:09:59;26.20;;;15.05;;
42978;SDS011;28616;44.746;19.678;2022-08-24T02:12:25;26.88;;;15.27;;
42978;SDS011;28616;44.746;19.678;2022-08-24T02:14:51;24.77;;;15.40;;
42978;SDS011;28616;44.746;19.678;2022-08-24T02:17:17;27.02;;;15.45;;
42978;SDS011;28616;44.746;19.678;2022-08-24T02:19:44;28.42;;;16.48;;
42978;SDS011;28616;44.746;19.678;2022-08-24T02:22:10;27.67;;;16.73;;
42978;SDS011;28616;44.746;19.678;2022-08-24T02:24:36;27.05;;;16.70;;
42978;SDS011;28616;44.746;19.678;2022-08-24T02:27:02;27.83;;;17.13;;
42978;SDS011;28616;44.746;19.678;2022-08-24T02:29:29;26.73;;;16.90;;
42978;SDS011;28616;44.746;19.678;2022-08-24T02:31:55;23.88;;;16.63;;
42978;SDS011;28616;44.746;19.678;2022-08-24T02:34:21;29.95;;;17.08;;
42978;SDS011;28616;44.746;19.678;2022-08-24T02:36:47;26.50;;;15.88;;
42978;SDS011;28616;44.746;19.678;2022-08-24T02:39:13;27.25;;;16.83;;
42978;SDS011;28616;44.746;19.678;2022-08-24T02:41:39;30.20;;;16.70;;
42978;SDS011;28616;44.746;19.678;2022-08-24T02:44:05;28.85;;;16.17;;
42978;SDS011;28616;44.746;19.678;2022-08-24T02:46:32;27.95;;;16.67;;
42978;SDS011;28616;44.746;19.678;2022-08-24T02:48:58;28.83;;;16.85;;
42978;SDS011;28616;44.746;19.678;2022-08-24T02:51:25;26.35;;;15.43;;
42978;SDS011;28616;44.746;19.678;2022-08-24T02:53:54;24.50;;;15.57;;
42978;SDS011;28616;44.746;19.678;2022-08-24T02:56:21;22.10;;;14.30;;
42978;SDS011;28616;44.746;19.678;2022-08-24T02:58:46;26.35;;;16.17;;
42978;SDS011;28616;44.746;19.678;2022-08-24T03:01:13;24.30;;;15.23;;
42978;SDS011;28616;44.746;19.678;2022-08-24T03:03:40;27.33;;;16.17;;
42978;SDS011;28616;44.746;19.678;2022-08-24T03:06:06;23.85;;;15.60;;
42978;SDS011;28616;44.746;19.678;2022-08-24T03:08:33;24.08;;;15.20;;
42978;SDS011;28616;44.746;19.678;2022-08-24T03:10:59;23.83;;;15.07;;
42978;SDS011;28616;44.746;19.678;2022-08-24T03:13:26;24.38;;;15.57;;
42978;SDS011;28616;44.746;19.678;2022-08-24T03:15:53;28.05;;;14.98;;
42978;SDS011;28616;44.746;19.678;2022-08-24T03:18:19;20.17;;;14.30;;
42978;SDS011;28616;44.746;19.678;2022-08-24T03:20:46;21.98;;;14.38;;
42978;SDS011;28616;44.746;19.678;2022-08-24T03:23:14;23.83;;;13.05;;
42978;SDS011;28616;44.746;19.678;2022-08-24T03:25:40;18.25;;;11.85;;
42978;SDS011;28616;44.746;19.678;2022-08-24T03:28:06;16.90;;;11.52;;
42978;SDS011;28616;44.746;19.678;2022-08-24T03:30:32;15.68;;;10.25;;
42978;SDS011;28616;44.746;19.678;2022-08-24T03:32:58;14.40;;;10.20;;
42978;SDS011;28616;44.746;19.678;2022-08-24T03:35:24;12.45;;;10.10;;
42978;SDS011;28616;44.746;19.678;2022-08-24T03:37:50;13.07;;;11.02;;
42978;SDS011;28616;44.746;19.678;2022-08-24T03:40:16;15.85;;;10.55;;
42978;SDS011;28616;44.746;19.678;2022-08-24T03:42:44;16.38;;;10.85;;
42978;SDS011;28616;44.746;19.678;2022-08-24T03:45:10;16.98;;;11.00;;
42978;SDS011;28616;44.746;19.678;2022-08-24T03:47:36;16.15;;;11.55;;
42978;SDS011;28616;44.746;19.678;2022-08-24T03:50:03;18.88;;;11.93;;
42978;SDS011;28616;44.746;19.678;2022-08-24T03:52:29;18.10;;;11.73;;
42978;SDS011;28616;44.746;19.678;2022-08-24T03:54:55;17.67;;;11.30;;
42978;SDS011;28616;44.746;19.678;2022-08-24T03:57:21;17.83;;;11.68;;
42978;SDS011;28616;44.746;19.678;2022-08-24T03:59:47;19.05;;;12.35;;
42978;SDS011;28616;44.746;19.678;2022-08-24T04:02:13;16.23;;;12.57;;
42978;SDS011;28616;44.746;19.678;2022-08-24T04:04:39;22.95;;;12.38;;
42978;SDS011;28616;44.746;19.678;2022-08-24T04:07:05;14.63;;;12.02;;
42978;SDS011;28616;44.746;19.678;2022-08-24T04:09:31;22.63;;;11.80;;
42978;SDS011;28616;44.746;19.678;2022-08-24T04:11:57;20.42;;;12.45;;
42978;SDS011;28616;44.746;19.678;2022-08-24T04:14:22;17.48;;;12.07;;
42978;SDS011;28616;44.746;19.678;2022-08-24T04:16:49;24.02;;;13.55;;
42978;SDS011;28616;44.746;19.678;2022-08-24T04:19:15;18.33;;;13.45;;
42978;SDS011;28616;44.746;19.678;2022-08-24T04:21:41;17.80;;;13.07;;
42978;SDS011;28616;44.746;19.678;2022-08-24T04:24:08;19.00;;;13.90;;
42978;SDS011;28616;44.746;19.678;2022-08-24T04:26:35;17.75;;;13.05;;
42978;SDS011;28616;44.746;19.678;2022-08-24T04:29:03;19.95;;;13.90;;
42978;SDS011;28616;44.746;19.678;2022-08-24T04:31:30;18.20;;;13.95;;
42978;SDS011;28616;44.746;19.678;2022-08-24T04:33:56;21.77;;;14.20;;
42978;SDS011;28616;44.746;19.678;2022-08-24T04:36:22;16.60;;;13.18;;
42978;SDS011;28616;44.746;19.678;2022-08-24T04:38:48;20.50;;;14.13;;
42978;SDS011;28616;44.746;19.678;2022-08-24T04:41:15;17.67;;;13.88;;
42978;SDS011;28616;44.746;19.678;2022-08-24T04:43:44;22.85;;;14.63;;
42978;SDS011;28616;44.746;19.678;2022-08-24T04:46:13;18.58;;;14.70;;
42978;SDS011;28616;44.746;19.678;2022-08-24T04:48:40;21.92;;;15.35;;
42978;SDS011;28616;44.746;19.678;2022-08-24T04:51:09;20.23;;;14.15;;
42978;SDS011;28616;44.746;19.678;2022-08-24T04:53:37;21.15;;;13.75;;
42978;SDS011;28616;44.746;19.678;2022-08-24T04:56:07;19.85;;;13.60;;
42978;SDS011;28616;44.746;19.678;2022-08-24T04:58:35;20.55;;;14.05;;
42978;SDS011;28616;44.746;19.678;2022-08-24T05:01:05;22.35;;;14.60;;
42978;SDS011;28616;44.746;19.678;2022-08-24T05:03:37;17.88;;;14.02;;
42978;SDS011;28616;44.746;19.678;2022-08-24T05:06:03;22.20;;;14.02;;
42978;SDS011;28616;44.746;19.678;2022-08-24T05:08:29;20.17;;;14.90;;
42978;SDS011;28616;44.746;19.678;2022-08-24T05:10:56;19.85;;;13.77;;
42978;SDS011;28616;44.746;19.678;2022-08-24T05:13:21;22.00;;;14.10;;
42978;SDS011;28616;44.746;19.678;2022-08-24T05:15:47;18.50;;;13.70;;
42978;SDS011;28616;44.746;19.678;2022-08-24T05:18:14;20.05;;;15.68;;
42978;SDS011;28616;44.746;19.678;2022-08-24T05:20:41;22.40;;;15.00;;
42978;SDS011;28616;44.746;19.678;2022-08-24T05:23:09;17.10;;;13.98;;
42978;SDS011;28616;44.746;19.678;2022-08-24T05:25:37;18.88;;;14.98;;
42978;SDS011;28616;44.746;19.678;2022-08-24T05:28:04;19.80;;;14.85;;
42978;SDS011;28616;44.746;19.678;2022-08-24T05:30:30;21.58;;;14.88;;
42978;SDS011;28616;44.746;19.678;2022-08-24T05:32:56;19.65;;;14.40;;
42978;SDS011;28616;44.746;19.678;2022-08-24T05:35:22;19.15;;;15.02;;
42978;SDS011;28616;44.746;19.678;2022-08-24T05:37:48;20.42;;;14.68;;
42978;SDS011;28616;44.746;19.678;2022-08-24T05:40:15;22.27;;;14.32;;
42978;SDS011;28616;44.746;19.678;2022-08-24T05:42:43;21.05;;;15.00;;
42978;SDS011;28616;44.746;19.678;2022-08-24T05:45:09;22.52;;;15.15;;
42978;SDS011;28616;44.746;19.678;2022-08-24T05:47:36;23.52;;;14.98;;
42978;SDS011;28616;44.746;19.678;2022-08-24T05:50:03;21.10;;;15.63;;
42978;SDS011;28616;44.746;19.678;2022-08-24T05:52:30;19.90;;;14.75;;
42978;SDS011;28616;44.746;19.678;2022-08-24T05:54:56;23.08;;;15.55;;
42978;SDS011;28616;44.746;19.678;2022-08-24T05:57:23;23.30;;;14.40;;
42978;SDS011;28616;44.746;19.678;2022-08-24T05:59:51;22.95;;;15.35;;
42978;SDS011;28616;44.746;19.678;2022-08-24T06:02:17;22.35;;;14.57;;
42978;SDS011;28616;44.746;19.678;2022-08-24T06:04:44;21.48;;;14.85;;
42978;SDS011;28616;44.746;19.678;2022-08-24T06:07:10;21.73;;;14.55;;
42978;SDS011;28616;44.746;19.678;2022-08-24T06:09:38;18.83;;;14.40;;
42978;SDS011;28616;44.746;19.678;2022-08-24T06:12:04;21.58;;;14.07;;
42978;SDS011;28616;44.746;19.678;2022-08-24T06:14:31;18.02;;;14.57;;
42978;SDS011;28616;44.746;19.678;2022-08-24T06:17:02;19.88;;;14.93;;
42978;SDS011;28616;44.746;19.678;2022-08-24T06:19:28;19.42;;;14.40;;
42978;SDS011;28616;44.746;19.678;2022-08-24T06:21:54;21.38;;;14.48;;
42978;SDS011;28616;44.746;19.678;2022-08-24T06:24:21;20.75;;;14.10;;
42978;SDS011;28616;44.746;19.678;2022-08-24T06:27:07;19.75;;;13.55;;
42978;SDS011;28616;44.746;19.678;2022-08-24T06:29:45;18.23;;;13.30;;
42978;SDS011;28616;44.746;19.678;2022-08-24T06:32:29;18.13;;;13.73;;
42978;SDS011;28616;44.746;19.678;2022-08-24T06:34:56;17.95;;;12.63;;
42978;SDS011;28616;44.746;19.678;2022-08-24T06:37:22;18.77;;;13.00;;
42978;SDS011;28616;44.746;19.678;2022-08-24T06:39:53;23.15;;;14.35;;
42978;SDS011;28616;44.746;19.678;2022-08-24T06:42:19;16.73;;;13.13;;
42978;SDS011;28616;44.746;19.678;2022-08-24T06:44:45;17.15;;;13.13;;
42978;SDS011;28616;44.746;19.678;2022-08-24T06:47:11;21.35;;;13.45;;
42978;SDS011;28616;44.746;19.678;2022-08-24T06:49:37;18.77;;;13.27;;
42978;SDS011;28616;44.746;19.678;2022-08-24T06:52:05;17.80;;;13.82;;
42978;SDS011;28616;44.746;19.678;2022-08-24T06:54:32;16.92;;;13.13;;
42978;SDS011;28616;44.746;19.678;2022-08-24T06:56:58;18.48;;;13.63;;
42978;SDS011;28616;44.746;19.678;2022-08-24T06:59:26;18.98;;;13.48;;
42978;SDS011;28616;44.746;19.678;2022-08-24T07:01:53;17.80;;;13.70;;
42978;SDS011;28616;44.746;19.678;2022-08-24T07:04:21;17.63;;;13.73;;
42978;SDS011;28616;44.746;19.678;2022-08-24T07:06:48;19.58;;;14.45;;
42978;SDS011;28616;44.746;19.678;2022-08-24T07:09:15;18.85;;;14.35;;
42978;SDS011;28616;44.746;19.678;2022-08-24T07:11:41;18.55;;;14.57;;
42978;SDS011;28616;44.746;19.678;2022-08-24T07:14:07;20.73;;;14.82;;
42978;SDS011;28616;44.746;19.678;2022-08-24T07:16:33;21.60;;;16.23;;
42978;SDS011;28616;44.746;19.678;2022-08-24T07:18:59;19.90;;;15.35;;
42978;SDS011;28616;44.746;19.678;2022-08-24T07:21:27;21.17;;;15.10;;
42978;SDS011;28616;44.746;19.678;2022-08-24T07:23:53;16.75;;;12.85;;
42978;SDS011;28616;44.746;19.678;2022-08-24T07:26:21;16.40;;;13.10;;
42978;SDS011;28616;44.746;19.678;2022-08-24T07:28:53;17.13;;;13.70;;
42978;SDS011;28616;44.746;19.678;2022-08-24T07:31:28;22.45;;;12.95;;
42978;SDS011;28616;44.746;19.678;2022-08-24T07:33:55;17.27;;;14.43;;
42978;SDS011;28616;44.746;19.678;2022-08-24T07:36:21;19.83;;;16.02;;
42978;SDS011;28616;44.746;19.678;2022-08-24T07:38:47;22.38;;;14.13;;
42978;SDS011;28616;44.746;19.678;2022-08-24T07:41:12;21.67;;;15.32;;
42978;SDS011;28616;44.746;19.678;2022-08-24T07:43:39;21.35;;;14.70;;
42978;SDS011;28616;44.746;19.678;2022-08-24T07:46:05;20.08;;;14.13;;
42978;SDS011;28616;44.746;19.678;2022-08-24T07:48:32;17.42;;;13.25;;
42978;SDS011;28616;44.746;19.678;2022-08-24T07:51:12;19.85;;;14.65;;
42978;SDS011;28616;44.746;19.678;2022-08-24T07:53:39;20.45;;;12.88;;
42978;SDS011;28616;44.746;19.678;2022-08-24T07:56:05;18.17;;;13.85;;
42978;SDS011;28616;44.746;19.678;2022-08-24T07:58:31;17.42;;;13.57;;
42978;SDS011;28616;44.746;19.678;2022-08-24T08:00:57;21.10;;;14.05;;
42978;SDS011;28616;44.746;19.678;2022-08-24T08:03:24;20.92;;;14.90;;
42978;SDS011;28616;44.746;19.678;2022-08-24T08:05:55;17.48;;;14.55;;
42978;SDS011;28616;44.746;19.678;2022-08-24T08:08:22;22.48;;;14.40;;
42978;SDS011;28616;44.746;19.678;2022-08-24T08:10:48;19.60;;;13.73;;
42978;SDS011;28616;44.746;19.678;2022-08-24T08:13:14;22.00;;;14.57;;
42978;SDS011;28616;44.746;19.678;2022-08-24T08:15:40;22.73;;;14.32;;
42978;SDS011;28616;44.746;19.678;2022-08-24T08:18:06;21.65;;;14.93;;
42978;SDS011;28616;44.746;19.678;2022-08-24T08:20:32;24.48;;;14.57;;
42978;SDS011;28616;44.746;19.678;2022-08-24T08:22:58;20.52;;;15.48;;
42978;SDS011;28616;44.746;19.678;2022-08-24T08:25:46;19.63;;;14.70;;
42978;SDS011;28616;44.746;19.678;2022-08-24T08:28:13;23.65;;;15.73;;
42978;SDS011;28616;44.746;19.678;2022-08-24T08:30:39;23.50;;;14.63;;
42978;SDS011;28616;44.746;19.678;2022-08-24T08:33:06;23.50;;;15.10;;
42978;SDS011;28616;44.746;19.678;2022-08-24T08:35:32;20.88;;;15.75;;
42978;SDS011;28616;44.746;19.678;2022-08-24T08:37:58;19.08;;;14.43;;
42978;SDS011;28616;44.746;19.678;2022-08-24T08:43:09;21.52;;;15.80;;
42978;SDS011;28616;44.746;19.678;2022-08-24T09:05:38;21.77;;;15.23;;
42978;SDS011;28616;44.746;19.678;2022-08-24T09:08:24;20.95;;;15.15;;
42978;SDS011;28616;44.746;19.678;2022-08-24T09:16:58;29.35;;;14.48;;
42978;SDS011;28616;44.746;19.678;2022-08-24T09:19:31;18.23;;;13.93;;
42978;SDS011;28616;44.746;19.678;2022-08-24T09:22:19;20.90;;;15.13;;
42978;SDS011;28616;44.746;19.678;2022-08-24T09:30:15;17.98;;;14.35;;
42978;SDS011;28616;44.746;19.678;2022-08-24T09:35:15;13.82;;;12.18;;
42978;SDS011;28616;44.746;19.678;2022-08-24T09:56:08;14.68;;;9.82;;
42978;SDS011;28616;44.746;19.678;2022-08-24T09:58:43;18.30;;;10.85;;
42978;SDS011;28616;44.746;19.678;2022-08-24T10:01:24;12.55;;;9.57;;
42978;SDS011;28616;44.746;19.678;2022-08-24T10:04:03;16.75;;;11.13;;
42978;SDS011;28616;44.746;19.678;2022-08-24T10:06:38;13.70;;;10.25;;
42978;SDS011;28616;44.746;19.678;2022-08-24T10:09:16;13.63;;;11.02;;
42978;SDS011;28616;44.746;19.678;2022-08-24T10:17:02;15.07;;;10.43;;
42978;SDS011;28616;44.746;19.678;2022-08-24T10:24:44;13.82;;;12.00;;
42978;SDS011;28616;44.746;19.678;2022-08-24T10:35:19;16.67;;;11.00;;
42978;SDS011;28616;44.746;19.678;2022-08-24T10:51:36;11.25;;;8.90;;
42978;SDS011;28616;44.746;19.678;2022-08-24T10:54:04;12.52;;;9.90;;
42978;SDS011;28616;44.746;19.678;2022-08-24T10:59:12;10.35;;;8.77;;
42978;SDS011;28616;44.746;19.678;2022-08-24T11:01:40;10.65;;;7.55;;
42978;SDS011;28616;44.746;19.678;2022-08-24T11:04:27;13.80;;;7.95;;
42978;SDS011;28616;44.746;19.678;2022-08-24T11:07:06;11.57;;;8.25;;
42978;SDS011;28616;44.746;19.678;2022-08-24T11:12:40;12.80;;;7.90;;
42978;SDS011;28616;44.746;19.678;2022-08-24T11:17:56;8.95;;;7.80;;
42978;SDS011;28616;44.746;19.678;2022-08-24T11:23:21;11.95;;;7.50;;
42978;SDS011;28616;44.746;19.678;2022-08-24T11:25:53;11.07;;;7.68;;
42978;SDS011;28616;44.746;19.678;2022-08-24T11:30:59;9.05;;;7.50;;
42978;SDS011;28616;44.746;19.678;2022-08-24T11:33:27;10.13;;;7.22;;
42978;SDS011;28616;44.746;19.678;2022-08-24T11:35:54;10.60;;;7.22;;
42978;SDS011;28616;44.746;19.678;2022-08-24T11:38:21;12.05;;;7.55;;
42978;SDS011;28616;44.746;19.678;2022-08-24T11:41:32;10.75;;;7.82;;
42978;SDS011;28616;44.746;19.678;2022-08-24T11:43:55;8.15;;;7.10;;
42978;SDS011;28616;44.746;19.678;2022-08-24T11:46:38;9.45;;;6.90;;
42978;SDS011;28616;44.746;19.678;2022-08-24T11:51:53;10.70;;;7.55;;
42978;SDS011;28616;44.746;19.678;2022-08-24T12:20:48;19.50;;;12.00;;
42978;SDS011;28616;44.746;19.678;2022-08-24T12:25:49;11.93;;;8.75;;
42978;SDS011;28616;44.746;19.678;2022-08-24T12:28:37;13.13;;;8.65;;
42978;SDS011;28616;44.746;19.678;2022-08-24T12:31:32;9.38;;;8.35;;
42978;SDS011;28616;44.746;19.678;2022-08-24T12:33:52;9.75;;;8.65;;
42978;SDS011;28616;44.746;19.678;2022-08-24T12:37:05;11.13;;;7.82;;
42978;SDS011;28616;44.746;19.678;2022-08-24T12:39:10;19.98;;;12.50;;
42978;SDS011;28616;44.746;19.678;2022-08-24T12:41:57;10.73;;;8.77;;
42978;SDS011;28616;44.746;19.678;2022-08-24T12:44:33;9.88;;;8.05;;
42978;SDS011;28616;44.746;19.678;2022-08-24T12:47:03;11.13;;;7.50;;
42978;SDS011;28616;44.746;19.678;2022-08-24T12:49:30;9.13;;;7.85;;
42978;SDS011;28616;44.746;19.678;2022-08-24T12:54:34;13.60;;;9.00;;
42978;SDS011;28616;44.746;19.678;2022-08-24T12:57:25;12.98;;;9.80;;
42978;SDS011;28616;44.746;19.678;2022-08-24T12:59:56;11.43;;;8.32;;
42978;SDS011;28616;44.746;19.678;2022-08-24T13:02:29;8.13;;;6.50;;
42978;SDS011;28616;44.746;19.678;2022-08-24T13:04:58;7.63;;;6.80;;
42978;SDS011;28616;44.746;19.678;2022-08-24T13:07:37;13.93;;;7.72;;
42978;SDS011;28616;44.746;19.678;2022-08-24T13:17:44;8.38;;;6.78;;
42978;SDS011;28616;44.746;19.678;2022-08-24T13:20:16;15.02;;;9.40;;
42978;SDS011;28616;44.746;19.678;2022-08-24T13:22:47;11.07;;;8.02;;
42978;SDS011;28616;44.746;19.678;2022-08-24T13:25:20;16.90;;;8.65;;
42978;SDS011;28616;44.746;19.678;2022-08-24T13:27:47;13.57;;;7.15;;
42978;SDS011;28616;44.746;19.678;2022-08-24T13:30:19;9.48;;;6.93;;
42978;SDS011;28616;44.746;19.678;2022-08-24T13:32:48;11.20;;;8.23;;
42978;SDS011;28616;44.746;19.678;2022-08-24T13:38:59;12.07;;;8.43;;
42978;SDS011;28616;44.746;19.678;2022-08-24T13:40:59;9.63;;;8.05;;
42978;SDS011;28616;44.746;19.678;2022-08-24T13:43:51;11.45;;;8.65;;
42978;SDS011;28616;44.746;19.678;2022-08-24T13:49:02;12.38;;;10.93;;
42978;SDS011;28616;44.746;19.678;2022-08-24T13:54:09;17.40;;;12.68;;
42978;SDS011;28616;44.746;19.678;2022-08-24T13:56:48;20.83;;;11.65;;
42978;SDS011;28616;44.746;19.678;2022-08-24T14:07:21;10.40;;;8.07;;
42978;SDS011;28616;44.746;19.678;2022-08-24T14:09:55;11.75;;;6.97;;
42978;SDS011;28616;44.746;19.678;2022-08-24T14:17:34;11.80;;;7.43;;
42978;SDS011;28616;44.746;19.678;2022-08-24T14:22:57;8.70;;;7.18;;
42978;SDS011;28616;44.746;19.678;2022-08-24T14:25:26;8.48;;;7.47;;
42978;SDS011;28616;44.746;19.678;2022-08-24T14:35:32;8.93;;;7.60;;
42978;SDS011;28616;44.746;19.678;2022-08-24T14:48:56;8.55;;;7.80;;
42978;SDS011;28616;44.746;19.678;2022-08-24T14:54:10;7.90;;;7.20;;
42978;SDS011;28616;44.746;19.678;2022-08-24T14:56:56;7.45;;;6.75;;
42978;SDS011;28616;44.746;19.678;2022-08-24T15:04:46;7.30;;;6.70;;
42978;SDS011;28616;44.746;19.678;2022-08-24T15:09:45;8.63;;;7.60;;
42978;SDS011;28616;44.746;19.678;2022-08-24T15:14:51;7.10;;;6.40;;
42978;SDS011;28616;44.746;19.678;2022-08-24T15:17:18;7.38;;;6.70;;
42978;SDS011;28616;44.746;19.678;2022-08-24T15:30:15;8.05;;;7.35;;
42978;SDS011;28616;44.746;19.678;2022-08-24T15:32:44;8.20;;;7.40;;
42978;SDS011;28616;44.746;19.678;2022-08-24T15:35:32;7.45;;;6.75;;
42978;SDS011;28616;44.746;19.678;2022-08-24T15:40:44;8.70;;;6.75;;
42978;SDS011;28616;44.746;19.678;2022-08-24T15:43:10;7.68;;;6.78;;
42978;SDS011;28616;44.746;19.678;2022-08-24T15:45:37;9.18;;;6.88;;
42978;SDS011;28616;44.746;19.678;2022-08-24T15:48:08;9.30;;;7.15;;
42978;SDS011;28616;44.746;19.678;2022-08-24T15:50:45;7.78;;;6.97;;
42978;SDS011;28616;44.746;19.678;2022-08-24T15:53:34;7.95;;;7.05;;
42978;SDS011;28616;44.746;19.678;2022-08-24T15:56:22;7.72;;;5.72;;
42978;SDS011;28616;44.746;19.678;2022-08-24T15:58:47;11.43;;;7.40;;
42978;SDS011;28616;44.746;19.678;2022-08-24T16:04:03;9.05;;;6.68;;
42978;SDS011;28616;44.746;19.678;2022-08-24T16:09:02;7.30;;;6.60;;
42978;SDS011;28616;44.746;19.678;2022-08-24T16:11:30;9.20;;;7.13;;
42978;SDS011;28616;44.746;19.678;2022-08-24T16:13:57;7.60;;;6.22;;
42978;SDS011;28616;44.746;19.678;2022-08-24T16:16:31;8.82;;;4.32;;
42978;SDS011;28616;44.746;19.678;2022-08-24T16:18:58;7.13;;;6.43;;
42978;SDS011;28616;44.746;19.678;2022-08-24T16:21:38;7.88;;;6.50;;
42978;SDS011;28616;44.746;19.678;2022-08-24T16:24:29;8.80;;;6.57;;
42978;SDS011;28616;44.746;19.678;2022-08-24T16:32:19;13.38;;;8.65;;
42978;SDS011;28616;44.746;19.678;2022-08-24T16:34:47;13.05;;;8.85;;
42978;SDS011;28616;44.746;19.678;2022-08-24T16:37:14;8.48;;;6.80;;
42978;SDS011;28616;44.746;19.678;2022-08-24T16:39:41;7.95;;;7.15;;
42978;SDS011;28616;44.746;19.678;2022-08-24T16:42:24;10.52;;;9.50;;
42978;SDS011;28616;44.746;19.678;2022-08-24T16:44:51;10.60;;;9.07;;
42978;SDS011;28616;44.746;19.678;2022-08-24T16:47:17;9.85;;;7.50;;
42978;SDS011;28616;44.746;19.678;2022-08-24T16:49:44;8.85;;;7.25;;
42978;SDS011;28616;44.746;19.678;2022-08-24T16:52:10;8.57;;;7.70;;
42978;SDS011;28616;44.746;19.678;2022-08-24T16:54:36;10.57;;;8.15;;
42978;SDS011;28616;44.746;19.678;2022-08-24T16:57:45;9.77;;;7.47;;
42978;SDS011;28616;44.746;19.678;2022-08-24T16:59:53;9.07;;;5.68;;
42978;SDS011;28616;44.746;19.678;2022-08-24T17:02:20;6.70;;;6.00;;
42978;SDS011;28616;44.746;19.678;2022-08-24T17:04:47;9.70;;;6.60;;
42978;SDS011;28616;44.746;19.678;2022-08-24T17:07:14;12.18;;;6.43;;
42978;SDS011;28616;44.746;19.678;2022-08-24T17:09:42;10.98;;;6.60;;
42978;SDS011;28616;44.746;19.678;2022-08-24T17:12:09;11.27;;;7.22;;
42978;SDS011;28616;44.746;19.678;2022-08-24T17:14:35;10.15;;;6.50;;
42978;SDS011;28616;44.746;19.678;2022-08-24T17:17:06;8.02;;;7.18;;
42978;SDS011;28616;44.746;19.678;2022-08-24T17:19:33;9.13;;;6.05;;
42978;SDS011;28616;44.746;19.678;2022-08-24T17:22:00;14.80;;;6.68;;
42978;SDS011;28616;44.746;19.678;2022-08-24T17:24:26;11.93;;;6.20;;
42978;SDS011;28616;44.746;19.678;2022-08-24T17:26:53;11.95;;;6.78;;
42978;SDS011;28616;44.746;19.678;2022-08-24T17:29:19;11.48;;;7.43;;
42978;SDS011;28616;44.746;19.678;2022-08-24T17:31:46;14.75;;;11.43;;
42978;SDS011;28616;44.746;19.678;2022-08-24T17:34:17;16.73;;;8.77;;
42978;SDS011;28616;44.746;19.678;2022-08-24T17:36:50;15.63;;;7.57;;
42978;SDS011;28616;44.746;19.678;2022-08-24T17:39:17;10.27;;;7.25;;
42978;SDS011;28616;44.746;19.678;2022-08-24T17:41:44;15.05;;;10.75;;
42978;SDS011;28616;44.746;19.678;2022-08-24T17:44:11;16.80;;;7.85;;
42978;SDS011;28616;44.746;19.678;2022-08-24T17:46:39;12.50;;;7.28;;
42978;SDS011;28616;44.746;19.678;2022-08-24T17:49:06;14.50;;;9.32;;
42978;SDS011;28616;44.746;19.678;2022-08-24T17:51:34;13.07;;;7.35;;
42978;SDS011;28616;44.746;19.678;2022-08-24T17:54:00;17.17;;;7.55;;
42978;SDS011;28616;44.746;19.678;2022-08-24T17:56:27;12.38;;;9.23;;
42978;SDS011;28616;44.746;19.678;2022-08-24T17:58:56;13.30;;;8.25;;
42978;SDS011;28616;44.746;19.678;2022-08-24T18:01:41;17.45;;;10.15;;
42978;SDS011;28616;44.746;19.678;2022-08-24T18:04:07;15.45;;;9.00;;
42978;SDS011;28616;44.746;19.678;2022-08-24T18:06:33;22.38;;;9.55;;
42978;SDS011;28616;44.746;19.678;2022-08-24T18:08:59;19.27;;;12.27;;
42978;SDS011;28616;44.746;19.678;2022-08-24T18:11:29;20.17;;;9.30;;
42978;SDS011;28616;44.746;19.678;2022-08-24T18:13:55;17.50;;;9.80;;
42978;SDS011;28616;44.746;19.678;2022-08-24T18:16:22;13.77;;;8.57;;
42978;SDS011;28616;44.746;19.678;2022-08-24T18:18:51;16.73;;;8.90;;